sensor_id;sensor_type;location;lat;lon;timestamp;P1;durP1;ratioP1;P2;durP2;ratioP2
20154;SDS011;10238;49.556;10.956;2022-08-07T00:02:12;6.25;;;5.97;;
20154;SDS011;10238;49.556;10.956;2022-08-07T00:05:01;9.27;;;8.82;;
20154;SDS011;10238;49.556;10.956;2022-08-07T00:07:34;16.50;;;15.82;;
20154;SDS011;10238;49.556;10.956;2022-08-07T00:10:07;15.63;;;14.88;;
20154;SDS011;10238;49.556;10.956;2022-08-07T00:12:56;16.25;;;15.55;;
20154;SDS011;10238;49.556;10.956;2022-08-07T00:15:51;16.92;;;16.13;;
20154;SDS011;10238;49.556;10.956;2022-08-07T00:18:22;20.35;;;19.40;;
20154;SDS011;10238;49.556;10.956;2022-08-07T00:20:55;19.98;;;19.15;;
20154;SDS011;10238;49.556;10.956;2022-08-07T00:23:29;20.30;;;19.45;;
20154;SDS011;10238;49.556;10.956;2022-08-07T00:26:02;18.87;;;17.97;;
20154;SDS011;10238;49.556;10.956;2022-08-07T00:28:53;17.58;;;16.83;;
20154;SDS011;10238;49.556;10.956;2022-08-07T00:31:24;18.42;;;17.42;;
20154;SDS011;10238;49.556;10.956;2022-08-07T00:34:07;19.77;;;18.77;;
20154;SDS011;10238;49.556;10.956;2022-08-07T00:36:37;18.10;;;17.20;;
20154;SDS011;10238;49.556;10.956;2022-08-07T00:39:09;13.05;;;12.55;;
20154;SDS011;10238;49.556;10.956;2022-08-07T00:41:49;14.50;;;13.90;;
20154;SDS011;10238;49.556;10.956;2022-08-07T00:44:31;6.78;;;6.47;;
20154;SDS011;10238;49.556;10.956;2022-08-07T00:47:02;4.90;;;4.60;;
20154;SDS011;10238;49.556;10.956;2022-08-07T00:49:54;4.85;;;4.65;;
20154;SDS011;10238;49.556;10.956;2022-08-07T00:52:43;2.92;;;2.83;;
20154;SDS011;10238;49.556;10.956;2022-08-07T00:55:13;2.90;;;2.70;;
20154;SDS011;10238;49.556;10.956;2022-08-07T00:58:08;3.85;;;2.95;;
20154;SDS011;10238;49.556;10.956;2022-08-07T01:00:38;2.08;;;1.98;;
20154;SDS011;10238;49.556;10.956;2022-08-07T01:03:21;2.45;;;1.83;;
20154;SDS011;10238;49.556;10.956;2022-08-07T01:06:10;1.77;;;1.70;;
20154;SDS011;10238;49.556;10.956;2022-08-07T01:08:41;1.60;;;1.50;;
20154;SDS011;10238;49.556;10.956;2022-08-07T01:11:19;2.55;;;1.88;;
20154;SDS011;10238;49.556;10.956;2022-08-07T01:14:09;1.50;;;1.40;;
20154;SDS011;10238;49.556;10.956;2022-08-07T01:16:41;1.48;;;1.38;;
20154;SDS011;10238;49.556;10.956;2022-08-07T01:19:16;1.50;;;1.40;;
20154;SDS011;10238;49.556;10.956;2022-08-07T01:21:59;1.60;;;1.50;;
20154;SDS011;10238;49.556;10.956;2022-08-07T01:24:35;1.50;;;1.40;;
20154;SDS011;10238;49.556;10.956;2022-08-07T01:27:06;2.75;;;1.65;;
20154;SDS011;10238;49.556;10.956;2022-08-07T01:29:45;2.05;;;1.50;;
20154;SDS011;10238;49.556;10.956;2022-08-07T01:32:16;1.40;;;1.40;;
20154;SDS011;10238;49.556;10.956;2022-08-07T01:34:48;1.35;;;1.25;;
20154;SDS011;10238;49.556;10.956;2022-08-07T01:37:20;1.75;;;1.65;;
20154;SDS011;10238;49.556;10.956;2022-08-07T01:39:51;1.75;;;1.63;;
20154;SDS011;10238;49.556;10.956;2022-08-07T01:42:23;1.60;;;1.50;;
20154;SDS011;10238;49.556;10.956;2022-08-07T01:45:06;2.95;;;1.60;;
20154;SDS011;10238;49.556;10.956;2022-08-07T01:47:44;2.80;;;2.45;;
20154;SDS011;10238;49.556;10.956;2022-08-07T01:50:33;1.85;;;1.33;;
20154;SDS011;10238;49.556;10.956;2022-08-07T01:53:11;1.98;;;1.88;;
20154;SDS011;10238;49.556;10.956;2022-08-07T01:55:50;3.67;;;2.17;;
20154;SDS011;10238;49.556;10.956;2022-08-07T01:58:31;2.00;;;1.90;;
20154;SDS011;10238;49.556;10.956;2022-08-07T02:01:13;3.28;;;1.77;;
20154;SDS011;10238;49.556;10.956;2022-08-07T02:04:10;1.90;;;1.80;;
20154;SDS011;10238;49.556;10.956;2022-08-07T02:06:45;2.15;;;1.90;;
20154;SDS011;10238;49.556;10.956;2022-08-07T02:09:16;1.80;;;1.70;;
20154;SDS011;10238;49.556;10.956;2022-08-07T02:12:08;4.90;;;1.92;;
20154;SDS011;10238;49.556;10.956;2022-08-07T02:14:57;1.73;;;1.63;;
20154;SDS011;10238;49.556;10.956;2022-08-07T02:17:33;1.95;;;1.60;;
20154;SDS011;10238;49.556;10.956;2022-08-07T02:20:07;1.67;;;1.58;;
20154;SDS011;10238;49.556;10.956;2022-08-07T02:25:22;2.38;;;1.50;;
20154;SDS011;10238;49.556;10.956;2022-08-07T02:28:14;3.22;;;1.50;;
20154;SDS011;10238;49.556;10.956;2022-08-07T02:30:51;1.58;;;1.48;;
20154;SDS011;10238;49.556;10.956;2022-08-07T02:33:22;1.45;;;1.38;;
20154;SDS011;10238;49.556;10.956;2022-08-07T02:36:08;2.15;;;1.90;;
20154;SDS011;10238;49.556;10.956;2022-08-07T02:38:59;1.67;;;1.58;;
20154;SDS011;10238;49.556;10.956;2022-08-07T02:41:44;1.35;;;1.35;;
20154;SDS011;10238;49.556;10.956;2022-08-07T02:44:20;2.33;;;1.77;;
20154;SDS011;10238;49.556;10.956;2022-08-07T02:47:01;2.22;;;2.13;;
20154;SDS011;10238;49.556;10.956;2022-08-07T02:49:33;2.15;;;2.05;;
20154;SDS011;10238;49.556;10.956;2022-08-07T02:52:23;2.88;;;1.35;;
20154;SDS011;10238;49.556;10.956;2022-08-07T02:55:06;1.88;;;1.25;;
20154;SDS011;10238;49.556;10.956;2022-08-07T02:57:57;2.25;;;1.95;;
20154;SDS011;10238;49.556;10.956;2022-08-07T03:00:33;1.95;;;1.60;;
20154;SDS011;10238;49.556;10.956;2022-08-07T03:03:06;2.03;;;1.92;;
20154;SDS011;10238;49.556;10.956;2022-08-07T03:05:39;3.47;;;1.55;;
20154;SDS011;10238;49.556;10.956;2022-08-07T03:08:11;1.60;;;1.60;;
20154;SDS011;10238;49.556;10.956;2022-08-07T03:10:41;1.70;;;1.60;;
20154;SDS011;10238;49.556;10.956;2022-08-07T03:13:14;1.88;;;1.77;;
20154;SDS011;10238;49.556;10.956;2022-08-07T03:15:46;2.03;;;1.58;;
20154;SDS011;10238;49.556;10.956;2022-08-07T03:18:24;2.05;;;1.85;;
20154;SDS011;10238;49.556;10.956;2022-08-07T03:21:02;2.03;;;1.77;;
20154;SDS011;10238;49.556;10.956;2022-08-07T03:23:37;2.35;;;2.00;;
20154;SDS011;10238;49.556;10.956;2022-08-07T03:26:31;1.80;;;1.70;;
20154;SDS011;10238;49.556;10.956;2022-08-07T03:29:20;2.17;;;1.50;;
20154;SDS011;10238;49.556;10.956;2022-08-07T03:31:53;1.98;;;1.75;;
20154;SDS011;10238;49.556;10.956;2022-08-07T03:34:24;2.50;;;1.90;;
20154;SDS011;10238;49.556;10.956;2022-08-07T03:36:55;2.63;;;2.10;;
20154;SDS011;10238;49.556;10.956;2022-08-07T03:39:38;1.77;;;1.67;;
20154;SDS011;10238;49.556;10.956;2022-08-07T03:42:29;1.65;;;1.55;;
20154;SDS011;10238;49.556;10.956;2022-08-07T03:47:33;1.88;;;1.55;;
20154;SDS011;10238;49.556;10.956;2022-08-07T03:50:16;2.60;;;1.77;;
20154;SDS011;10238;49.556;10.956;2022-08-07T03:52:49;2.75;;;2.10;;
20154;SDS011;10238;49.556;10.956;2022-08-07T03:55:20;1.40;;;1.40;;
20154;SDS011;10238;49.556;10.956;2022-08-07T03:58:09;1.70;;;1.60;;
20154;SDS011;10238;49.556;10.956;2022-08-07T04:01:00;1.52;;;1.42;;
20154;SDS011;10238;49.556;10.956;2022-08-07T04:03:37;1.95;;;1.60;;
20154;SDS011;10238;49.556;10.956;2022-08-07T04:06:20;1.52;;;1.50;;
20154;SDS011;10238;49.556;10.956;2022-08-07T04:09:04;1.75;;;1.45;;
20154;SDS011;10238;49.556;10.956;2022-08-07T04:11:42;2.47;;;1.55;;
20154;SDS011;10238;49.556;10.956;2022-08-07T04:14:32;1.77;;;1.40;;
20154;SDS011;10238;49.556;10.956;2022-08-07T04:17:11;1.65;;;1.50;;
20154;SDS011;10238;49.556;10.956;2022-08-07T04:19:47;2.50;;;1.50;;
20154;SDS011;10238;49.556;10.956;2022-08-07T04:22:21;1.45;;;1.35;;
20154;SDS011;10238;49.556;10.956;2022-08-07T04:24:56;1.30;;;1.20;;
20154;SDS011;10238;49.556;10.956;2022-08-07T04:27:28;1.60;;;1.50;;
20154;SDS011;10238;49.556;10.956;2022-08-07T04:30:02;1.40;;;1.30;;
20154;SDS011;10238;49.556;10.956;2022-08-07T04:32:57;1.38;;;1.27;;
20154;SDS011;10238;49.556;10.956;2022-08-07T04:35:34;3.13;;;1.60;;
20154;SDS011;10238;49.556;10.956;2022-08-07T04:38:04;2.33;;;1.30;;
20154;SDS011;10238;49.556;10.956;2022-08-07T04:40:37;1.33;;;1.30;;
20154;SDS011;10238;49.556;10.956;2022-08-07T04:43:20;1.60;;;1.50;;
20154;SDS011;10238;49.556;10.956;2022-08-07T04:46:17;4.15;;;1.60;;
20154;SDS011;10238;49.556;10.956;2022-08-07T04:49:04;1.55;;;1.45;;
20154;SDS011;10238;49.556;10.956;2022-08-07T04:51:52;2.00;;;1.63;;
20154;SDS011;10238;49.556;10.956;2022-08-07T04:54:44;2.92;;;1.67;;
20154;SDS011;10238;49.556;10.956;2022-08-07T04:57:25;1.63;;;1.50;;
20154;SDS011;10238;49.556;10.956;2022-08-07T05:00:20;1.88;;;1.48;;
20154;SDS011;10238;49.556;10.956;2022-08-07T05:03:07;2.05;;;1.65;;
20154;SDS011;10238;49.556;10.956;2022-08-07T05:08:47;2.10;;;1.40;;
20154;SDS011;10238;49.556;10.956;2022-08-07T05:11:29;1.55;;;1.40;;
20154;SDS011;10238;49.556;10.956;2022-08-07T05:14:24;1.98;;;1.65;;
20154;SDS011;10238;49.556;10.956;2022-08-07T05:17:19;1.70;;;1.60;;
20154;SDS011;10238;49.556;10.956;2022-08-07T05:20:12;1.98;;;1.75;;
20154;SDS011;10238;49.556;10.956;2022-08-07T05:22:51;2.65;;;1.75;;
20154;SDS011;10238;49.556;10.956;2022-08-07T05:25:27;2.33;;;1.58;;
20154;SDS011;10238;49.556;10.956;2022-08-07T05:28:19;1.80;;;1.70;;
20154;SDS011;10238;49.556;10.956;2022-08-07T05:30:53;1.77;;;1.30;;
20154;SDS011;10238;49.556;10.956;2022-08-07T05:33:27;2.45;;;1.55;;
20154;SDS011;10238;49.556;10.956;2022-08-07T05:36:03;2.00;;;1.77;;
20154;SDS011;10238;49.556;10.956;2022-08-07T05:38:49;3.80;;;1.52;;
20154;SDS011;10238;49.556;10.956;2022-08-07T05:41:34;2.85;;;1.70;;
20154;SDS011;10238;49.556;10.956;2022-08-07T05:44:25;1.65;;;1.55;;
20154;SDS011;10238;49.556;10.956;2022-08-07T05:46:58;1.60;;;1.45;;
20154;SDS011;10238;49.556;10.956;2022-08-07T05:49:45;6.18;;;1.75;;
20154;SDS011;10238;49.556;10.956;2022-08-07T05:55:00;1.70;;;1.65;;
20154;SDS011;10238;49.556;10.956;2022-08-07T05:57:37;2.88;;;2.22;;
20154;SDS011;10238;49.556;10.956;2022-08-07T06:00:10;1.70;;;1.45;;
20154;SDS011;10238;49.556;10.956;2022-08-07T06:02:43;1.60;;;1.50;;
20154;SDS011;10238;49.556;10.956;2022-08-07T06:05:17;3.90;;;1.75;;
20154;SDS011;10238;49.556;10.956;2022-08-07T06:07:54;1.98;;;1.85;;
20154;SDS011;10238;49.556;10.956;2022-08-07T06:10:49;2.10;;;2.00;;
20154;SDS011;10238;49.556;10.956;2022-08-07T06:13:21;2.78;;;2.28;;
20154;SDS011;10238;49.556;10.956;2022-08-07T06:16:10;3.85;;;1.80;;
20154;SDS011;10238;49.556;10.956;2022-08-07T06:18:42;2.60;;;2.50;;
20154;SDS011;10238;49.556;10.956;2022-08-07T06:21:21;2.15;;;1.95;;
20154;SDS011;10238;49.556;10.956;2022-08-07T06:24:11;4.97;;;2.20;;
20154;SDS011;10238;49.556;10.956;2022-08-07T06:27:02;2.47;;;2.28;;
20154;SDS011;10238;49.556;10.956;2022-08-07T06:32:05;2.13;;;1.92;;
20154;SDS011;10238;49.556;10.956;2022-08-07T06:34:34;4.50;;;4.22;;
20154;SDS011;10238;49.556;10.956;2022-08-07T06:37:11;2.38;;;2.28;;
20154;SDS011;10238;49.556;10.956;2022-08-07T06:39:46;2.17;;;2.03;;
20154;SDS011;10238;49.556;10.956;2022-08-07T06:42:37;3.35;;;2.63;;
20154;SDS011;10238;49.556;10.956;2022-08-07T06:45:13;2.38;;;2.28;;
20154;SDS011;10238;49.556;10.956;2022-08-07T06:47:47;6.18;;;5.78;;
20154;SDS011;10238;49.556;10.956;2022-08-07T06:50:25;4.68;;;4.47;;
20154;SDS011;10238;49.556;10.956;2022-08-07T06:52:56;5.53;;;5.25;;
20154;SDS011;10238;49.556;10.956;2022-08-07T06:55:30;3.60;;;3.40;;
20154;SDS011;10238;49.556;10.956;2022-08-07T06:58:23;6.38;;;6.07;;
20154;SDS011;10238;49.556;10.956;2022-08-07T07:00:54;4.25;;;3.85;;
20154;SDS011;10238;49.556;10.956;2022-08-07T07:03:28;4.88;;;4.68;;
20154;SDS011;10238;49.556;10.956;2022-08-07T07:06:15;4.32;;;4.13;;
20154;SDS011;10238;49.556;10.956;2022-08-07T07:08:52;3.20;;;3.00;;
20154;SDS011;10238;49.556;10.956;2022-08-07T07:11:24;4.55;;;3.50;;
20154;SDS011;10238;49.556;10.956;2022-08-07T07:14:15;3.35;;;3.15;;
20154;SDS011;10238;49.556;10.956;2022-08-07T07:16:52;2.50;;;2.40;;
20154;SDS011;10238;49.556;10.956;2022-08-07T07:19:28;1.67;;;1.58;;
20154;SDS011;10238;49.556;10.956;2022-08-07T07:22:23;2.97;;;2.78;;
20154;SDS011;10238;49.556;10.956;2022-08-07T07:25:06;2.35;;;2.25;;
20154;SDS011;10238;49.556;10.956;2022-08-07T07:30:52;3.05;;;2.00;;
20154;SDS011;10238;49.556;10.956;2022-08-07T07:33:29;2.53;;;2.38;;
20154;SDS011;10238;49.556;10.956;2022-08-07T07:36:03;2.75;;;2.55;;
20154;SDS011;10238;49.556;10.956;2022-08-07T07:38:39;2.50;;;2.03;;
20154;SDS011;10238;49.556;10.956;2022-08-07T07:41:13;3.50;;;3.30;;
20154;SDS011;10238;49.556;10.956;2022-08-07T07:43:56;2.40;;;2.30;;
20154;SDS011;10238;49.556;10.956;2022-08-07T07:46:50;2.38;;;2.28;;
20154;SDS011;10238;49.556;10.956;2022-08-07T07:49:40;1.95;;;1.85;;
20154;SDS011;10238;49.556;10.956;2022-08-07T07:52:32;1.70;;;1.60;;
20154;SDS011;10238;49.556;10.956;2022-08-07T07:55:06;3.22;;;1.40;;
20154;SDS011;10238;49.556;10.956;2022-08-07T07:57:37;2.47;;;1.50;;
20154;SDS011;10238;49.556;10.956;2022-08-07T08:00:19;1.60;;;1.40;;
20154;SDS011;10238;49.556;10.956;2022-08-07T08:03:02;2.88;;;2.78;;
20154;SDS011;10238;49.556;10.956;2022-08-07T08:05:56;2.42;;;2.25;;
20154;SDS011;10238;49.556;10.956;2022-08-07T08:08:26;1.98;;;1.60;;
20154;SDS011;10238;49.556;10.956;2022-08-07T08:11:05;2.13;;;1.98;;
20154;SDS011;10238;49.556;10.956;2022-08-07T08:13:45;4.63;;;4.43;;
20154;SDS011;10238;49.556;10.956;2022-08-07T08:16:25;7.00;;;6.60;;
20154;SDS011;10238;49.556;10.956;2022-08-07T08:19:03;5.38;;;5.15;;
20154;SDS011;10238;49.556;10.956;2022-08-07T08:21:59;2.13;;;2.03;;
20154;SDS011;10238;49.556;10.956;2022-08-07T08:24:58;1.60;;;1.55;;
20154;SDS011;10238;49.556;10.956;2022-08-07T08:28:08;1.60;;;1.50;;
20154;SDS011;10238;49.556;10.956;2022-08-07T08:31:02;3.85;;;3.65;;
20154;SDS011;10238;49.556;10.956;2022-08-07T08:33:42;3.33;;;3.22;;
20154;SDS011;10238;49.556;10.956;2022-08-07T08:36:23;2.78;;;2.58;;
20154;SDS011;10238;49.556;10.956;2022-08-07T08:39:00;1.63;;;1.52;;
20154;SDS011;10238;49.556;10.956;2022-08-07T08:41:35;1.58;;;1.52;;
20154;SDS011;10238;49.556;10.956;2022-08-07T08:44:25;1.58;;;1.35;;
20154;SDS011;10238;49.556;10.956;2022-08-07T08:47:13;1.30;;;1.20;;
20154;SDS011;10238;49.556;10.956;2022-08-07T08:52:33;2.17;;;1.20;;
20154;SDS011;10238;49.556;10.956;2022-08-07T08:55:21;1.23;;;1.13;;
20154;SDS011;10238;49.556;10.956;2022-08-07T08:58:22;2.58;;;1.40;;
20154;SDS011;10238;49.556;10.956;2022-08-07T09:01:07;1.73;;;1.65;;
20154;SDS011;10238;49.556;10.956;2022-08-07T09:03:48;2.80;;;1.52;;
20154;SDS011;10238;49.556;10.956;2022-08-07T09:06:30;1.60;;;1.50;;
20154;SDS011;10238;49.556;10.956;2022-08-07T09:09:30;1.40;;;1.30;;
20154;SDS011;10238;49.556;10.956;2022-08-07T09:12:28;2.13;;;1.35;;
20154;SDS011;10238;49.556;10.956;2022-08-07T09:15:29;3.20;;;1.38;;
20154;SDS011;10238;49.556;10.956;2022-08-07T09:18:32;1.65;;;1.55;;
20154;SDS011;10238;49.556;10.956;2022-08-07T09:21:28;1.60;;;1.33;;
20154;SDS011;10238;49.556;10.956;2022-08-07T09:24:30;1.35;;;1.25;;
20154;SDS011;10238;49.556;10.956;2022-08-07T09:27:31;1.75;;;1.15;;
20154;SDS011;10238;49.556;10.956;2022-08-07T09:30:30;0.98;;;0.98;;
20154;SDS011;10238;49.556;10.956;2022-08-07T09:33:26;3.05;;;0.95;;
20154;SDS011;10238;49.556;10.956;2022-08-07T09:36:25;1.52;;;1.20;;
20154;SDS011;10238;49.556;10.956;2022-08-07T09:39:17;1.27;;;1.10;;
20154;SDS011;10238;49.556;10.956;2022-08-07T09:45:19;2.00;;;1.90;;
20154;SDS011;10238;49.556;10.956;2022-08-07T09:48:26;1.75;;;1.65;;
20154;SDS011;10238;49.556;10.956;2022-08-07T09:51:32;1.80;;;1.70;;
20154;SDS011;10238;49.556;10.956;2022-08-07T09:54:43;2.22;;;2.03;;
20154;SDS011;10238;49.556;10.956;2022-08-07T09:57:24;2.60;;;2.40;;
20154;SDS011;10238;49.556;10.956;2022-08-07T10:00:43;1.73;;;1.63;;
20154;SDS011;10238;49.556;10.956;2022-08-07T10:03:35;3.00;;;1.70;;
20154;SDS011;10238;49.556;10.956;2022-08-07T10:06:45;2.10;;;1.40;;
20154;SDS011;10238;49.556;10.956;2022-08-07T10:09:40;2.65;;;1.20;;
20154;SDS011;10238;49.556;10.956;2022-08-07T10:12:39;1.20;;;1.10;;
20154;SDS011;10238;49.556;10.956;2022-08-07T10:16:08;1.88;;;1.77;;
20154;SDS011;10238;49.556;10.956;2022-08-07T10:22:17;1.40;;;1.30;;
20154;SDS011;10238;49.556;10.956;2022-08-07T10:25:23;1.35;;;1.25;;
20154;SDS011;10238;49.556;10.956;2022-08-07T10:28:14;1.65;;;0.80;;
20154;SDS011;10238;49.556;10.956;2022-08-07T10:31:21;0.90;;;0.80;;
20154;SDS011;10238;49.556;10.956;2022-08-07T10:34:19;0.88;;;0.88;;
20154;SDS011;10238;49.556;10.956;2022-08-07T10:37:08;1.20;;;0.93;;
20154;SDS011;10238;49.556;10.956;2022-08-07T10:40:18;1.38;;;0.95;;
20154;SDS011;10238;49.556;10.956;2022-08-07T10:42:57;1.85;;;0.90;;
20154;SDS011;10238;49.556;10.956;2022-08-07T10:48:29;1.92;;;1.05;;
20154;SDS011;10238;49.556;10.956;2022-08-07T10:51:13;0.80;;;0.80;;
20154;SDS011;10238;49.556;10.956;2022-08-07T10:54:10;1.00;;;0.80;;
20154;SDS011;10238;49.556;10.956;2022-08-07T10:56:52;1.85;;;0.90;;
20154;SDS011;10238;49.556;10.956;2022-08-07T10:59:40;1.70;;;0.93;;
20154;SDS011;10238;49.556;10.956;2022-08-07T11:02:28;0.88;;;0.88;;
20154;SDS011;10238;49.556;10.956;2022-08-07T11:05:13;3.03;;;1.40;;
20154;SDS011;10238;49.556;10.956;2022-08-07T11:08:15;1.23;;;1.10;;
20154;SDS011;10238;49.556;10.956;2022-08-07T11:11:07;1.10;;;1.10;;
20154;SDS011;10238;49.556;10.956;2022-08-07T11:13:47;1.10;;;1.10;;
20154;SDS011;10238;49.556;10.956;2022-08-07T11:16:42;1.10;;;1.10;;
20154;SDS011;10238;49.556;10.956;2022-08-07T11:19:28;1.30;;;1.20;;
20154;SDS011;10238;49.556;10.956;2022-08-07T11:22:06;1.63;;;1.00;;
20154;SDS011;10238;49.556;10.956;2022-08-07T11:25:03;1.48;;;1.10;;
20154;SDS011;10238;49.556;10.956;2022-08-07T11:27:44;1.40;;;1.30;;
20154;SDS011;10238;49.556;10.956;2022-08-07T11:30:33;1.20;;;1.00;;
20154;SDS011;10238;49.556;10.956;2022-08-07T11:33:15;0.90;;;0.90;;
20154;SDS011;10238;49.556;10.956;2022-08-07T11:36:15;2.63;;;1.30;;
20154;SDS011;10238;49.556;10.956;2022-08-07T11:39:00;1.27;;;0.90;;
20154;SDS011;10238;49.556;10.956;2022-08-07T11:41:48;0.95;;;0.95;;
20154;SDS011;10238;49.556;10.956;2022-08-07T11:44:46;7.07;;;2.00;;
20154;SDS011;10238;49.556;10.956;2022-08-07T11:47:28;0.90;;;0.90;;
20154;SDS011;10238;49.556;10.956;2022-08-07T11:50:26;1.05;;;1.00;;
20154;SDS011;10238;49.556;10.956;2022-08-07T11:53:30;3.20;;;1.33;;
20154;SDS011;10238;49.556;10.956;2022-08-07T11:56:31;2.25;;;1.00;;
20154;SDS011;10238;49.556;10.956;2022-08-07T11:59:32;2.05;;;1.08;;
20154;SDS011;10238;49.556;10.956;2022-08-07T12:09:27;0.93;;;0.90;;
20154;SDS011;10238;49.556;10.956;2022-08-07T12:12:03;1.20;;;1.10;;
20154;SDS011;10238;49.556;10.956;2022-08-07T12:14:41;0.90;;;0.90;;
20154;SDS011;10238;49.556;10.956;2022-08-07T12:17:29;1.58;;;1.10;;
20154;SDS011;10238;49.556;10.956;2022-08-07T12:20:27;1.40;;;1.30;;
20154;SDS011;10238;49.556;10.956;2022-08-07T12:23:10;1.48;;;1.20;;
20154;SDS011;10238;49.556;10.956;2022-08-07T12:26:18;1.33;;;1.00;;
20154;SDS011;10238;49.556;10.956;2022-08-07T12:29:15;2.30;;;1.20;;
20154;SDS011;10238;49.556;10.956;2022-08-07T12:32:08;1.05;;;0.82;;
20154;SDS011;10238;49.556;10.956;2022-08-07T12:34:50;1.33;;;1.00;;
20154;SDS011;10238;49.556;10.956;2022-08-07T12:37:26;1.30;;;1.20;;
20154;SDS011;10238;49.556;10.956;2022-08-07T12:40:18;1.17;;;1.00;;
20154;SDS011;10238;49.556;10.956;2022-08-07T12:43:13;1.20;;;1.10;;
20154;SDS011;10238;49.556;10.956;2022-08-07T12:46:17;1.30;;;0.93;;
20154;SDS011;10238;49.556;10.956;2022-08-07T12:49:02;1.20;;;1.00;;
20154;SDS011;10238;49.556;10.956;2022-08-07T12:52:12;0.90;;;0.90;;
20154;SDS011;10238;49.556;10.956;2022-08-07T12:54:49;1.00;;;1.00;;
20154;SDS011;10238;49.556;10.956;2022-08-07T12:57:32;1.25;;;1.15;;
20154;SDS011;10238;49.556;10.956;2022-08-07T13:00:28;1.08;;;1.08;;
20154;SDS011;10238;49.556;10.956;2022-08-07T13:07:02;1.35;;;1.25;;
20154;SDS011;10238;49.556;10.956;2022-08-07T13:10:31;1.77;;;1.67;;
20154;SDS011;10238;49.556;10.956;2022-08-07T13:13:35;2.10;;;1.35;;
20154;SDS011;10238;49.556;10.956;2022-08-07T13:16:21;1.50;;;1.40;;
20154;SDS011;10238;49.556;10.956;2022-08-07T13:19:08;1.85;;;1.73;;
20154;SDS011;10238;49.556;10.956;2022-08-07T13:22:12;1.63;;;1.52;;
20154;SDS011;10238;49.556;10.956;2022-08-07T13:24:56;1.65;;;1.48;;
20154;SDS011;10238;49.556;10.956;2022-08-07T13:27:34;3.42;;;1.20;;
20154;SDS011;10238;49.556;10.956;2022-08-07T13:30:27;1.50;;;1.40;;
20154;SDS011;10238;49.556;10.956;2022-08-07T13:33:16;1.45;;;1.35;;
20154;SDS011;10238;49.556;10.956;2022-08-07T13:36:17;1.38;;;1.30;;
20154;SDS011;10238;49.556;10.956;2022-08-07T13:38:58;1.00;;;1.00;;
20154;SDS011;10238;49.556;10.956;2022-08-07T13:41:54;1.60;;;1.50;;
20154;SDS011;10238;49.556;10.956;2022-08-07T13:44:26;1.70;;;1.60;;
20154;SDS011;10238;49.556;10.956;2022-08-07T13:47:04;1.35;;;1.35;;
20154;SDS011;10238;49.556;10.956;2022-08-07T13:49:42;3.67;;;1.65;;
20154;SDS011;10238;49.556;10.956;2022-08-07T13:52:36;1.90;;;1.75;;
20154;SDS011;10238;49.556;10.956;2022-08-07T13:55:15;1.35;;;1.35;;
20154;SDS011;10238;49.556;10.956;2022-08-07T13:57:57;1.58;;;1.48;;
20154;SDS011;10238;49.556;10.956;2022-08-07T14:00:57;1.92;;;1.83;;
20154;SDS011;10238;49.556;10.956;2022-08-07T14:03:35;2.00;;;1.80;;
20154;SDS011;10238;49.556;10.956;2022-08-07T14:06:30;2.00;;;1.65;;
20154;SDS011;10238;49.556;10.956;2022-08-07T14:09:04;1.50;;;1.50;;
20154;SDS011;10238;49.556;10.956;2022-08-07T14:11:59;1.83;;;1.73;;
20154;SDS011;10238;49.556;10.956;2022-08-07T14:14:38;2.03;;;1.92;;
20154;SDS011;10238;49.556;10.956;2022-08-07T14:17:11;2.10;;;1.58;;
20154;SDS011;10238;49.556;10.956;2022-08-07T14:20:03;1.70;;;1.60;;
20154;SDS011;10238;49.556;10.956;2022-08-07T14:23:04;1.60;;;1.60;;
20154;SDS011;10238;49.556;10.956;2022-08-07T14:25:58;1.67;;;1.58;;
20154;SDS011;10238;49.556;10.956;2022-08-07T14:28:35;1.92;;;1.83;;
20154;SDS011;10238;49.556;10.956;2022-08-07T14:31:26;1.65;;;1.60;;
20154;SDS011;10238;49.556;10.956;2022-08-07T14:34:09;1.40;;;1.30;;
20154;SDS011;10238;49.556;10.956;2022-08-07T14:36:46;1.30;;;1.30;;
20154;SDS011;10238;49.556;10.956;2022-08-07T14:39:22;2.03;;;1.88;;
20154;SDS011;10238;49.556;10.956;2022-08-07T14:42:13;1.77;;;1.67;;
20154;SDS011;10238;49.556;10.956;2022-08-07T14:44:53;1.73;;;1.58;;
20154;SDS011;10238;49.556;10.956;2022-08-07T14:47:46;1.85;;;1.75;;
20154;SDS011;10238;49.556;10.956;2022-08-07T14:50:25;1.58;;;1.58;;
20154;SDS011;10238;49.556;10.956;2022-08-07T14:53:03;1.95;;;1.85;;
20154;SDS011;10238;49.556;10.956;2022-08-07T14:55:39;2.00;;;1.90;;
20154;SDS011;10238;49.556;10.956;2022-08-07T14:58:30;2.00;;;1.90;;
20154;SDS011;10238;49.556;10.956;2022-08-07T15:01:10;1.90;;;1.80;;
20154;SDS011;10238;49.556;10.956;2022-08-07T15:03:49;1.60;;;1.55;;
20154;SDS011;10238;49.556;10.956;2022-08-07T15:06:20;1.80;;;1.70;;
20154;SDS011;10238;49.556;10.956;2022-08-07T15:08:52;1.80;;;1.70;;
20154;SDS011;10238;49.556;10.956;2022-08-07T15:11:50;1.63;;;1.52;;
20154;SDS011;10238;49.556;10.956;2022-08-07T15:14:46;1.45;;;1.33;;
20154;SDS011;10238;49.556;10.956;2022-08-07T15:17:25;1.10;;;1.10;;
20154;SDS011;10238;49.556;10.956;2022-08-07T15:20:21;1.60;;;1.55;;
20154;SDS011;10238;49.556;10.956;2022-08-07T15:23:18;1.25;;;1.20;;
20154;SDS011;10238;49.556;10.956;2022-08-07T15:26:13;2.28;;;1.17;;
20154;SDS011;10238;49.556;10.956;2022-08-07T15:28:54;1.40;;;1.30;;
20154;SDS011;10238;49.556;10.956;2022-08-07T15:31:47;1.30;;;1.20;;
20154;SDS011;10238;49.556;10.956;2022-08-07T15:34:32;1.30;;;1.30;;
20154;SDS011;10238;49.556;10.956;2022-08-07T15:37:23;1.88;;;1.23;;
20154;SDS011;10238;49.556;10.956;2022-08-07T15:40:17;1.20;;;1.20;;
20154;SDS011;10238;49.556;10.956;2022-08-07T15:43:11;2.92;;;1.25;;
20154;SDS011;10238;49.556;10.956;2022-08-07T15:46:13;1.52;;;1.42;;
20154;SDS011;10238;49.556;10.956;2022-08-07T15:49:06;1.70;;;1.58;;
20154;SDS011;10238;49.556;10.956;2022-08-07T15:51:45;2.22;;;1.50;;
20154;SDS011;10238;49.556;10.956;2022-08-07T15:54:24;2.15;;;1.35;;
20154;SDS011;10238;49.556;10.956;2022-08-07T15:57:06;1.40;;;1.30;;
20154;SDS011;10238;49.556;10.956;2022-08-07T15:59:58;1.20;;;1.17;;
20154;SDS011;10238;49.556;10.956;2022-08-07T16:02:34;1.23;;;1.08;;
20154;SDS011;10238;49.556;10.956;2022-08-07T16:05:08;1.27;;;1.10;;
20154;SDS011;10238;49.556;10.956;2022-08-07T16:07:43;1.63;;;1.50;;
20154;SDS011;10238;49.556;10.956;2022-08-07T16:10:35;0.90;;;0.90;;
20154;SDS011;10238;49.556;10.956;2022-08-07T16:16:50;1.63;;;1.30;;
20154;SDS011;10238;49.556;10.956;2022-08-07T16:19:51;1.30;;;1.20;;
20154;SDS011;10238;49.556;10.956;2022-08-07T16:22:36;1.88;;;1.30;;
20154;SDS011;10238;49.556;10.956;2022-08-07T16:25:38;1.35;;;1.25;;
20154;SDS011;10238;49.556;10.956;2022-08-07T16:28:26;1.40;;;1.30;;
20154;SDS011;10238;49.556;10.956;2022-08-07T16:31:37;1.55;;;1.38;;
20154;SDS011;10238;49.556;10.956;2022-08-07T16:34:24;1.65;;;1.50;;
20154;SDS011;10238;49.556;10.956;2022-08-07T16:40:36;1.27;;;1.17;;
20154;SDS011;10238;49.556;10.956;2022-08-07T16:47:10;1.67;;;1.05;;
20154;SDS011;10238;49.556;10.956;2022-08-07T16:50:23;2.08;;;1.10;;
20154;SDS011;10238;49.556;10.956;2022-08-07T16:56:49;6.43;;;4.72;;
20154;SDS011;10238;49.556;10.956;2022-08-07T16:59:44;9.63;;;8.82;;
20154;SDS011;10238;49.556;10.956;2022-08-07T17:02:33;3.63;;;3.30;;
20154;SDS011;10238;49.556;10.956;2022-08-07T17:05:29;2.78;;;2.55;;
20154;SDS011;10238;49.556;10.956;2022-08-07T17:08:47;5.00;;;2.60;;
20154;SDS011;10238;49.556;10.956;2022-08-07T17:11:43;2.45;;;1.95;;
20154;SDS011;10238;49.556;10.956;2022-08-07T17:14:45;1.90;;;1.80;;